Time;durP1;ratioP1;P1;durP2;ratioP2;P2;SDS_P1;SDS_P2;PMS_P1;PMS_P2;Temp;Humidity;BMP_temperature;BMP_pressure;BME280_temperature;BME280_humidity;BME280_pressure;Samples;Min_cycle;Max_cycle;Signal;HPM_P1;HPM_P2
2023/05/03 00:00:29;;;;;;;5.45;3.00;;;;;;;6.51;100.00;103072.75;5067506;28;20064;-63
2023/05/03 00:02:56;;;;;;;4.93;2.50;;;;;;;6.55;100.00;103075.47;5067203;28;20027;-64
2023/05/03 00:05:21;;;;;;;5.13;2.70;;;;;;;6.50;100.00;103066.63;5062172;28;20099;-60
2023/05/03 00:07:47;;;;;;;3.20;2.20;;;;;;;6.52;100.00;103064.03;5066677;28;20504;-61
2023/05/03 00:10:14;;;;;;;4.72;2.63;;;;;;;6.49;100.00;103070.13;5066424;28;20486;-61
2023/05/03 00:12:41;;;;;;;2.80;2.33;;;;;;;6.48;100.00;103065.75;5066743;28;20035;-61
2023/05/03 00:15:08;;;;;;;4.20;2.50;;;;;;;6.50;100.00;103064.00;5062919;28;20032;-62
2023/05/03 00:17:33;;;;;;;3.50;2.80;;;;;;;6.44;100.00;103061.28;5067083;28;20016;-62
2023/05/03 00:19:59;;;;;;;6.32;3.00;;;;;;;6.50;100.00;103069.25;5068965;28;20437;-61
2023/05/03 00:22:25;;;;;;;5.38;2.45;;;;;;;6.50;100.00;103064.00;5070051;28;20095;-61
2023/05/03 00:24:50;;;;;;;8.43;2.80;;;;;;;6.43;100.00;103062.13;5066766;28;20032;-62
2023/05/03 00:27:19;;;;;;;6.22;2.50;;;;;;;6.41;100.00;103067.34;5070800;28;20028;-63
2023/05/03 00:29:45;;;;;;;8.75;2.58;;;;;;;6.37;100.00;103064.63;5070143;28;20062;-61
2023/05/03 00:32:10;;;;;;;10.00;3.30;;;;;;;6.35;100.00;103061.97;5070762;28;20726;-61
2023/05/03 00:34:36;;;;;;;3.70;2.78;;;;;;;6.34;100.00;103059.34;5066489;28;20037;-62
2023/05/03 00:37:02;;;;;;;6.18;2.85;;;;;;;6.31;100.00;103054.94;5070804;28;20028;-61
2023/05/03 00:39:30;;;;;;;4.90;2.55;;;;;;;6.29;100.00;103057.50;5069783;28;20438;-63
2023/05/03 00:41:57;;;;;;;5.82;2.70;;;;;;;6.28;100.00;103057.47;5069995;28;20028;-62
2023/05/03 00:44:22;;;;;;;5.28;2.72;;;;;;;6.25;100.00;103054.78;5066734;28;20125;-61
2023/05/03 00:46:48;;;;;;;3.00;2.58;;;;;;;6.21;100.00;103061.72;5070534;28;20544;-60
2023/05/03 00:49:13;;;;;;;6.07;3.08;;;;;;;6.23;100.00;103056.53;5068224;28;20100;-61
2023/05/03 00:51:40;;;;;;;9.35;2.90;;;;;;;6.29;100.00;103067.13;5062344;28;20024;-61
2023/05/03 00:54:06;;;;;;;7.13;3.10;;;;;;;6.24;100.00;103061.78;5069932;28;20107;-61
2023/05/03 00:56:31;;;;;;;3.97;2.78;;;;;;;6.19;100.00;103060.78;5067751;28;20461;-63
2023/05/03 00:58:57;;;;;;;6.35;3.08;;;;;;;6.13;100.00;103065.91;5070174;28;20104;-60
2023/05/03 01:01:22;;;;;;;8.55;3.38;;;;;;;6.19;100.00;103071.28;5057027;28;20486;-61
2023/05/03 01:03:49;;;;;;;5.32;3.22;;;;;;;6.16;100.00;103071.19;5049958;28;20032;-62
2023/05/03 01:06:38;;;;;;;5.45;2.90;;;;;;;6.09;100.00;103074.56;5059844;28;20671;-61
2023/05/03 01:09:12;;;;;;;6.65;2.95;;;;;;;6.05;100.00;103064.00;5067529;28;20074;-61
2023/05/03 01:12:13;;;;;;;4.50;3.03;;;;;;;6.02;100.00;103060.44;5070327;28;20087;-61
2023/05/03 01:14:59;;;;;;;9.18;3.40;;;;;;;6.00;100.00;103065.63;5067383;28;20047;-62
2023/05/03 01:17:28;;;;;;;6.53;3.20;;;;;;;5.96;100.00;103065.53;5068369;28;20028;-60
2023/05/03 01:19:56;;;;;;;5.03;2.97;;;;;;;5.92;100.00;103065.47;5068057;28;20029;-60
2023/05/03 01:22:42;;;;;;;4.20;2.97;;;;;;;5.85;100.00;103060.06;5068675;28;20552;-62
2023/05/03 01:25:10;;;;;;;7.70;3.00;;;;;;;5.82;100.00;103066.97;5056307;28;20049;-63
2023/05/03 01:27:36;;;;;;;5.15;2.95;;;;;;;5.82;100.00;103066.97;5049415;28;20108;-62
2023/05/03 01:30:04;;;;;;;7.43;3.10;;;;;;;5.79;100.00;103066.94;5047045;28;20113;-62
2023/05/03 01:32:54;;;;;;;9.25;3.00;;;;;;;5.77;100.00;103066.00;5049121;28;20061;-60
2023/05/03 01:35:27;;;;;;;7.72;2.70;;;;;;;5.80;100.00;103062.56;5044368;28;20086;-63
2023/05/03 01:37:54;;;;;;;6.95;3.28;;;;;;;5.79;100.00;103059.09;5069441;28;20051;-62
2023/05/03 01:40:21;;;;;;;5.28;2.97;;;;;;;5.81;100.00;103059.97;5066988;28;20020;-61
2023/05/03 01:42:47;;;;;;;6.07;3.40;;;;;;;5.82;100.00;103053.03;5069198;28;20646;-61
2023/05/03 01:45:13;;;;;;;4.32;2.95;;;;;;;5.78;100.00;103049.44;5065451;28;20035;-61
2023/05/03 01:47:38;;;;;;;7.03;3.95;;;;;;;5.72;100.00;103043.22;5067996;28;20024;-62
2023/05/03 01:50:03;;;;;;;7.70;3.50;;;;;;;5.72;100.00;103041.47;5067315;28;20450;-61
2023/05/03 01:52:29;;;;;;;4.80;3.53;;;;;;;5.74;100.00;103038.88;5068402;28;20634;-61
2023/05/03 01:54:55;;;;;;;4.10;3.53;;;;;;;5.76;100.00;103040.69;5065247;28;20052;-61
2023/05/03 01:57:21;;;;;;;3.80;3.40;;;;;;;5.74;100.00;103026.69;5068545;28;20092;-61
2023/05/03 01:59:46;;;;;;;7.38;3.88;;;;;;;5.72;100.00;103012.69;5067318;28;20024;-61
2023/05/03 02:02:11;;;;;;;5.70;3.53;;;;;;;5.67;100.00;103011.72;5068194;28;20410;-63
2023/05/03 02:04:37;;;;;;;5.90;3.70;;;;;;;5.66;100.00;103005.59;5064129;28;20470;-61
2023/05/03 02:07:02;;;;;;;5.97;3.80;;;;;;;5.63;100.00;102996.81;5068770;28;20033;-63
2023/05/03 02:09:27;;;;;;;6.28;3.80;;;;;;;5.61;100.00;102993.28;5068302;28;20058;-62
2023/05/03 02:11:53;;;;;;;5.45;3.58;;;;;;;5.63;100.00;102994.19;5067891;28;20029;-62
2023/05/03 02:14:18;;;;;;;13.10;3.88;;;;;;;5.64;100.00;102988.09;5062783;28;20049;-61
2023/05/03 02:16:43;;;;;;;6.25;4.00;;;;;;;5.57;100.00;102987.09;5049556;28;20025;-60
2023/05/03 02:19:09;;;;;;;9.95;6.25;;;;;;;5.59;100.00;102984.50;5048278;28;20029;-60
2023/05/03 02:21:35;;;;;;;4.97;3.75;;;;;;;5.56;100.00;102988.81;5048685;28;20474;-61
2023/05/03 02:24:01;;;;;;;5.60;3.50;;;;;;;5.57;100.00;102998.44;5051873;28;20423;-64
2023/05/03 02:26:26;;;;;;;9.63;3.40;;;;;;;5.64;100.00;103001.19;5068475;28;20166;-63
2023/05/03 02:28:52;;;;;;;6.28;3.08;;;;;;;5.63;100.00;103009.91;5068137;28;20459;-63
2023/05/03 02:31:17;;;;;;;6.50;3.03;;;;;;;5.66;100.00;103017.81;5067718;28;20073;-62
2023/05/03 02:33:43;;;;;;;7.20;3.45;;;;;;;5.68;100.00;103021.31;5064494;28;20165;-62
2023/05/03 02:36:08;;;;;;;5.40;3.33;;;;;;;5.66;100.00;103020.44;5067379;28;20374;-62
2023/05/03 02:38:33;;;;;;;12.52;2.92;;;;;;;5.70;100.00;103019.63;5067293;28;20028;-61
2023/05/03 02:40:59;;;;;;;5.25;3.00;;;;;;;5.67;100.00;103030.94;5067357;28;20021;-60
2023/05/03 02:43:24;;;;;;;9.05;3.47;;;;;;;5.74;100.00;103033.66;5066006;28;20031;-62
2023/05/03 02:45:50;;;;;;;13.13;2.85;;;;;;;5.73;100.00;103031.88;5050488;28;20029;-61
2023/05/03 02:48:15;;;;;;;3.83;2.63;;;;;;;5.70;100.00;103032.72;5047532;28;20029;-60
2023/05/03 02:50:41;;;;;;;8.38;3.47;;;;;;;5.66;100.00;103036.13;5046435;28;20021;-61
2023/05/03 02:53:06;;;;;;;8.15;2.97;;;;;;;5.67;100.00;103030.03;5047790;28;20064;-62
2023/05/03 02:55:31;;;;;;;6.97;3.13;;;;;;;5.64;100.00;103029.97;5063520;28;20031;-61
2023/05/03 02:57:57;;;;;;;7.15;2.53;;;;;;;5.61;100.00;103032.50;5068074;28;20506;-61
2023/05/03 03:00:22;;;;;;;5.03;3.00;;;;;;;5.59;100.00;103029.84;5066284;28;20108;-61
2023/05/03 03:02:47;;;;;;;6.75;3.00;;;;;;;5.61;100.00;103029.88;5067010;28;20027;-62
2023/05/03 03:05:13;;;;;;;6.85;2.72;;;;;;;5.62;100.00;103032.53;5063469;28;20032;-61
2023/05/03 03:07:39;;;;;;;11.13;3.53;;;;;;;5.54;100.00;103028.88;5067502;28;20501;-61
2023/05/03 03:10:05;;;;;;;4.43;2.42;;;;;;;5.48;100.00;103029.59;5065824;28;20385;-63
2023/05/03 03:12:31;;;;;;;7.38;2.80;;;;;;;5.49;100.00;103041.84;5064994;28;20075;-61
2023/05/03 03:14:57;;;;;;;7.43;2.80;;;;;;;5.47;100.00;103038.31;5063157;28;20060;-61
2023/05/03 03:17:22;;;;;;;9.93;2.75;;;;;;;5.47;100.00;103046.16;5066284;28;20047;-60
2023/05/03 03:19:47;;;;;;;5.38;2.80;;;;;;;5.41;100.00;103039.03;5065400;28;20108;-62
2023/05/03 03:22:13;;;;;;;6.78;2.58;;;;;;;5.46;100.00;103040.88;5062081;28;20025;-63
2023/05/03 03:24:38;;;;;;;4.53;2.90;;;;;;;5.44;100.00;103040.84;5066741;28;20020;-63
2023/05/03 03:27:04;;;;;;;5.10;2.45;;;;;;;5.46;100.00;103043.50;5066186;28;20024;-61
2023/05/03 03:29:31;;;;;;;9.07;2.97;;;;;;;5.43;100.00;103041.69;5067146;28;20351;-62
2023/05/03 03:31:56;;;;;;;7.78;3.33;;;;;;;5.39;100.00;103045.09;5063800;28;20031;-63
2023/05/03 03:34:21;;;;;;;8.05;2.58;;;;;;;5.36;100.00;103038.03;5048610;28;20393;-61
2023/05/03 03:36:47;;;;;;;5.30;2.80;;;;;;;5.31;100.00;103032.72;5065835;28;20032;-61
2023/05/03 03:39:12;;;;;;;9.05;2.70;;;;;;;5.25;100.00;103036.91;5066569;28;20825;-62
2023/05/03 03:41:38;;;;;;;6.05;2.53;;;;;;;5.27;100.00;103030.88;5063463;28;20036;-61
2023/05/03 03:44:03;;;;;;;6.78;2.63;;;;;;;5.31;100.00;103037.06;5063653;28;20086;-62
2023/05/03 03:46:29;;;;;;;7.13;2.85;;;;;;;5.28;100.00;103042.22;5067814;28;20505;-62
2023/05/03 03:48:54;;;;;;;8.25;2.85;;;;;;;5.21;100.00;103041.16;5065488;28;20028;-62
2023/05/03 03:51:19;;;;;;;8.75;3.17;;;;;;;5.23;100.00;103047.34;5065752;28;20513;-62
2023/05/03 03:53:45;;;;;;;6.63;3.28;;;;;;;5.20;100.00;103047.25;5062721;28;20048;-63
2023/05/03 03:56:10;;;;;;;5.32;3.15;;;;;;;5.17;100.00;103055.91;5066373;28;20028;-62
2023/05/03 03:58:35;;;;;;;3.47;2.97;;;;;;;5.11;100.00;103057.47;5066144;28;20031;-62
2023/05/03 04:01:01;;;;;;;7.80;3.20;;;;;;;5.09;100.00;103051.34;5064783;28;20029;-62
2023/05/03 04:03:26;;;;;;;4.95;2.85;;;;;;;5.06;100.00;103060.88;5062828;28;20043;-60
2023/05/03 04:05:51;;;;;;;8.43;2.92;;;;;;;5.15;100.00;103068.06;5066634;28;20021;-61
2023/05/03 04:08:17;;;;;;;8.77;2.70;;;;;;;5.12;100.00;103069.72;5066472;28;20073;-62
2023/05/03 04:10:43;;;;;;;5.90;2.90;;;;;;;5.09;100.00;103077.47;5063767;28;20060;-61
2023/05/03 04:13:09;;;;;;;7.47;3.38;;;;;;;5.09;100.00;103073.13;5065993;28;20371;-62
2023/05/03 04:15:34;;;;;;;6.13;3.03;;;;;;;5.08;100.00;103070.50;5059353;28;20023;-62
2023/05/03 04:18:00;;;;;;;6.20;2.80;;;;;;;5.04;100.00;103075.63;5061996;28;20481;-63
2023/05/03 04:20:25;;;;;;;8.68;3.35;;;;;;;5.01;100.00;103091.25;5046844;28;20124;-61
2023/05/03 04:22:51;;;;;;;6.25;2.92;;;;;;;5.07;100.00;103085.28;5046482;28;20516;-62
2023/05/03 04:25:17;;;;;;;7.10;3.25;;;;;;;5.05;100.00;103085.25;5046685;28;20028;-62
2023/05/03 04:27:43;;;;;;;5.35;3.80;;;;;;;5.02;100.00;103081.66;5047098;28;20021;-61
2023/05/03 04:30:09;;;;;;;5.25;3.08;;;;;;;5.07;100.00;103080.06;5046912;28;20025;-62
2023/05/03 04:32:36;;;;;;;9.27;3.45;;;;;;;5.09;100.00;103077.47;5047374;28;20643;-61
2023/05/03 04:35:09;;;;;;;8.82;3.30;;;;;;;5.14;100.00;103075.84;5046542;28;20574;-62
2023/05/03 04:37:38;;;;;;;7.22;3.05;;;;;;;5.21;100.00;103072.53;5046779;28;20025;-60
2023/05/03 04:40:09;;;;;;;11.13;3.45;;;;;;;5.18;100.00;103067.25;5046413;28;20356;-61
2023/05/03 04:42:35;;;;;;;8.18;3.20;;;;;;;5.21;100.00;103069.94;5046941;28;20021;-62
2023/05/03 04:45:05;;;;;;;6.88;3.42;;;;;;;5.30;100.00;103074.53;5045971;28;20108;-64
2023/05/03 04:47:31;;;;;;;6.18;3.40;;;;;;;5.35;100.00;103064.16;5046829;28;20025;-64
2023/05/03 04:49:56;;;;;;;9.20;3.33;;;;;;;5.40;100.00;103073.91;5045871;28;20039;-62
2023/05/03 04:52:21;;;;;;;7.35;3.30;;;;;;;5.43;100.00;103068.75;5045550;28;20531;-62
2023/05/03 04:54:47;;;;;;;13.10;3.45;;;;;;;5.54;100.00;103070.72;5064805;28;20465;-61
2023/05/03 04:57:12;;;;;;;7.68;4.07;;;;;;;5.44;100.00;103077.44;5065290;28;20680;-63
2023/05/03 04:59:37;;;;;;;10.88;3.55;;;;;;;5.46;100.00;103074.88;5058825;28;20103;-60
2023/05/03 05:02:03;;;;;;;4.82;3.17;;;;;;;5.54;100.00;103071.59;5066343;28;20020;-61
2023/05/03 05:04:28;;;;;;;8.88;3.65;;;;;;;5.54;100.00;103071.59;5065166;28;20028;-62
2023/05/03 05:06:53;;;;;;;6.80;2.75;;;;;;;5.64;100.00;103072.69;5068674;28;20032;-62
2023/05/03 05:09:24;;;;;;;11.15;2.92;;;;;;;5.73;100.00;103076.38;5066053;28;20037;-62
2023/05/03 05:11:49;;;;;;;8.68;3.00;;;;;;;5.81;100.00;103075.69;5069542;28;20025;-62
2023/05/03 05:14:15;;;;;;;7.68;3.05;;;;;;;5.82;100.00;103082.66;5066891;28;20045;-61
2023/05/03 05:16:40;;;;;;;14.20;3.25;;;;;;;5.79;100.00;103085.25;5067666;28;20037;-61
2023/05/03 05:19:06;;;;;;;9.82;3.13;;;;;;;5.87;100.00;103085.41;5049810;28;20025;-61
2023/05/03 05:21:32;;;;;;;8.13;2.70;;;;;;;6.03;100.00;103086.63;5048301;28;20023;-60
2023/05/03 05:23:58;;;;;;;9.73;3.13;;;;;;;6.00;100.00;103085.69;5049595;28;20024;-61
2023/05/03 05:26:23;;;;;;;7.78;3.10;;;;;;;6.07;100.00;103091.13;5055435;28;20016;-61
2023/05/03 05:28:49;;;;;;;9.82;3.38;;;;;;;6.21;100.00;103087.91;5070237;28;20017;-61
2023/05/03 05:31:14;;;;;;;8.32;3.60;;;;;;;6.29;100.00;103086.31;5068624;28;20499;-61
2023/05/03 05:33:39;;;;;;;10.32;2.92;;;;;;;6.35;100.00;103092.53;5068042;28;20074;-61
2023/05/03 05:36:05;;;;;;;6.05;3.33;;;;;;;6.43;100.00;103096.19;5065977;28;20033;-62
2023/05/03 05:38:30;;;;;;;3.80;2.60;;;;;;;6.55;100.00;103091.19;5069328;28;20074;-62
2023/05/03 05:40:56;;;;;;;8.52;2.83;;;;;;;6.52;100.00;103096.38;5051914;28;20112;-62
2023/05/03 05:43:21;;;;;;;10.13;2.83;;;;;;;6.60;100.00;103103.50;5062551;28;20029;-62
2023/05/03 05:45:46;;;;;;;11.77;3.10;;;;;;;6.67;100.00;103105.38;5069197;28;20114;-60
2023/05/03 05:48:12;;;;;;;8.68;2.90;;;;;;;6.78;100.00;103101.25;5065861;28;20028;-61
2023/05/03 05:50:38;;;;;;;7.47;2.70;;;;;;;6.85;100.00;103107.47;5065292;28;20056;-60
2023/05/03 05:53:03;;;;;;;6.95;2.40;;;;;;;6.97;100.00;103104.19;5068262;28;20473;-62
2023/05/03 05:55:28;;;;;;;5.80;2.42;;;;;;;7.08;100.00;103102.63;5063030;28;20423;-62
2023/05/03 05:57:54;;;;;;;10.50;2.80;;;;;;;7.09;100.00;103108.75;5068137;28;20101;-62
2023/05/03 06:00:20;;;;;;;8.10;2.35;;;;;;;7.19;100.00;103102.81;5067806;28;20028;-62
2023/05/03 06:02:46;;;;;;;4.88;2.28;;;;;;;7.28;100.00;103099.47;5065130;28;20511;-61
2023/05/03 06:05:11;;;;;;;8.15;2.20;;;;;;;7.42;100.00;103090.94;5068503;28;20054;-61
2023/05/03 06:07:36;;;;;;;6.13;2.05;;;;;;;7.33;100.00;103092.56;5066957;28;20070;-61
2023/05/03 06:10:03;;;;;;;7.40;2.60;;;;;;;7.49;100.00;103086.69;5028427;28;20033;-62
2023/05/03 06:12:29;;;;;;;8.30;2.17;;;;;;;7.53;100.00;103091.97;5061915;28;20028;-61
2023/05/03 06:14:54;;;;;;;5.35;1.92;;;;;;;7.46;100.00;103097.97;5066957;28;20045;-61
2023/05/03 06:17:22;;;;;;;7.22;2.20;;;;;;;7.58;100.00;103098.19;5063200;28;20499;-61
2023/05/03 06:19:48;;;;;;;8.60;2.33;;;;;;;7.58;100.00;103100.81;5063431;28;20028;-62
2023/05/03 06:22:16;;;;;;;6.70;2.15;;;;;;;7.66;100.00;103098.28;5042816;28;20108;-63
2023/05/03 06:24:41;;;;;;;9.33;2.30;;;;;;;7.71;100.00;103103.63;5064284;28;20498;-63
2023/05/03 06:27:07;;;;;;;7.22;2.33;;;;;;;7.88;100.00;103105.56;5067148;28;20040;-62
2023/05/03 06:29:32;;;;;;;6.13;2.45;;;;;;;7.96;100.00;103098.72;5063937;28;20025;-60
2023/05/03 06:31:57;;;;;;;4.40;2.38;;;;;;;7.94;100.00;103095.16;5070366;28;20095;-61
2023/05/03 06:34:24;;;;;;;8.73;2.13;;;;;;;8.03;100.00;103099.66;5064888;28;20012;-62
2023/05/03 06:36:49;;;;;;;10.70;2.05;;;;;;;8.06;100.00;103097.97;5050269;28;20029;-63
2023/05/03 06:39:15;;;;;;;5.10;1.90;;;;;;;8.14;100.00;103089.31;5029515;28;20069;-62
2023/05/03 06:41:41;;;;;;;6.78;1.85;;;;;;;8.27;100.00;103082.44;5051819;28;20389;-63
2023/05/03 06:44:06;;;;;;;7.32;1.65;;;;;;;8.26;100.00;103081.59;5062896;28;20029;-62
2023/05/03 06:46:32;;;;;;;4.10;1.70;;;;;;;8.26;100.00;103080.69;5058530;28;20025;-62
2023/05/03 06:48:57;;;;;;;8.63;2.85;;;;;;;8.38;100.00;103080.84;5040269;28;20025;-61
2023/05/03 06:51:27;;;;;;;6.40;1.83;;;;;;;8.52;100.00;103073.09;5051645;28;20017;-62
2023/05/03 06:53:55;;;;;;;;;;;;;;;8.55;100.00;103072.31;5046129;28;20552;-61
2023/05/03 06:56:21;;;;;;;4.83;1.80;;;;;;;8.47;100.00;103077.44;5043603;28;19920;-63
2023/05/03 06:58:46;;;;;;;3.70;1.20;;;;;;;8.58;100.00;103074.97;5040946;28;20292;-62
2023/05/03 07:01:12;;;;;;;4.97;1.67;;;;;;;8.77;100.00;103067.25;5059060;28;20095;-61
2023/05/03 07:03:37;;;;;;;9.05;1.70;;;;;;;8.60;99.57;103070.59;5048349;28;20013;-60
2023/05/03 07:06:03;;;;;;;3.38;1.65;;;;;;;8.50;99.54;103069.59;5041287;28;20418;-63
2023/05/03 07:08:28;;;;;;;11.52;2.47;;;;;;;8.56;99.61;103067.06;5058215;28;20039;-62
2023/05/03 07:10:53;;;;;;;3.03;1.60;;;;;;;8.76;99.02;103066.38;5046206;28;20033;-63
2023/05/03 07:13:19;;;;;;;4.95;1.50;;;;;;;8.67;97.89;103064.53;5060919;28;20123;-61
2023/05/03 07:15:44;;;;;;;8.80;1.40;;;;;;;8.65;97.99;103060.13;5048434;28;20056;-65
2023/05/03 07:18:10;;;;;;;4.40;1.67;;;;;;;8.91;97.36;103055.09;5049306;28;20165;-61
2023/05/03 07:20:35;;;;;;;6.60;1.58;;;;;;;8.93;98.27;103055.13;5060129;28;20025;-62
2023/05/03 07:23:01;;;;;;;1.85;1.30;;;;;;;9.08;97.86;103050.00;5045573;28;20021;-64
2023/05/03 07:25:26;;;;;;;6.35;1.67;;;;;;;9.05;97.58;103043.81;5058376;28;20028;-60
2023/05/03 07:27:51;;;;;;;4.22;1.58;;;;;;;8.97;97.49;103043.75;5046881;28;20029;-62
2023/05/03 07:30:17;;;;;;;15.00;1.98;;;;;;;9.19;98.08;103038.69;5047233;28;20092;-61
2023/05/03 07:32:43;;;;;;;4.30;1.70;;;;;;;9.31;96.86;103043.16;5055799;28;20028;-63
2023/05/03 07:35:08;;;;;;;5.20;1.98;;;;;;;9.41;96.07;103041.44;5045698;28;20112;-62
2023/05/03 07:37:33;;;;;;;4.22;1.45;;;;;;;9.37;95.54;103035.31;5047171;28;20128;-61
2023/05/03 07:39:59;;;;;;;3.47;1.40;;;;;;;9.54;95.33;103037.16;5065060;28;20028;-62
2023/05/03 07:42:24;;;;;;;6.65;1.60;;;;;;;9.57;94.72;103027.53;5068069;28;20098;-60
2023/05/03 07:44:50;;;;;;;4.30;1.30;;;;;;;9.54;93.00;103024.88;5063096;28;20111;-64
2023/05/03 07:47:16;;;;;;;6.10;1.48;;;;;;;9.68;93.46;103029.31;5066219;28;20115;-63
2023/05/03 07:49:41;;;;;;;4.68;1.40;;;;;;;9.82;93.16;103014.47;5064505;28;20158;-62
2023/05/03 07:52:06;;;;;;;4.38;1.40;;;;;;;9.93;92.97;103014.50;5066671;28;20119;-61
2023/05/03 07:54:32;;;;;;;3.25;1.48;;;;;;;10.04;92.82;103017.19;5066025;28;20039;-61
2023/05/03 07:56:57;;;;;;;5.50;1.45;;;;;;;10.09;92.99;103020.72;5066392;28;20537;-63
2023/05/03 07:59:22;;;;;;;2.22;1.10;;;;;;;9.96;90.60;103032.06;5063262;28;20104;-63
2023/05/03 08:01:48;;;;;;;5.07;1.20;;;;;;;9.80;90.78;103036.41;5057162;28;20027;-62
2023/05/03 08:04:13;;;;;;;5.43;1.30;;;;;;;9.67;90.45;103031.09;5048724;28;20040;-60
2023/05/03 08:06:38;;;;;;;6.57;1.25;;;;;;;9.65;90.97;103027.56;5040201;28;20360;-61
2023/05/03 08:09:04;;;;;;;7.72;1.70;;;;;;;9.94;91.29;103028.56;5061753;28;20374;-63
2023/05/03 08:11:29;;;;;;;6.47;1.40;;;;;;;10.10;92.02;103022.50;5040662;28;20156;-60
2023/05/03 08:13:55;;;;;;;5.68;1.30;;;;;;;10.07;91.93;103013.69;5044521;28;20586;-61
2023/05/03 08:16:20;;;;;;;5.57;1.42;;;;;;;10.08;90.50;103018.97;5056350;28;20036;-61
2023/05/03 08:18:46;;;;;;;9.35;1.50;;;;;;;10.11;90.96;103024.25;5050686;28;20061;-62
2023/05/03 08:21:12;;;;;;;5.20;1.48;;;;;;;10.32;91.34;103019.91;5043161;28;20033;-62
2023/05/03 08:23:37;;;;;;;5.32;1.75;;;;;;;10.47;90.47;103024.38;5063296;28;20048;-60
2023/05/03 08:26:03;;;;;;;4.45;1.42;;;;;;;10.65;89.79;103021.75;5042863;28;20017;-62
2023/05/03 08:28:29;;;;;;;6.70;1.40;;;;;;;10.57;89.56;103029.66;5043018;28;20470;-61
2023/05/03 08:30:55;;;;;;;6.45;1.60;;;;;;;10.41;87.35;103026.94;5051405;28;20033;-63
2023/05/03 08:33:21;;;;;;;6.25;1.33;;;;;;;10.25;87.85;103020.78;5043110;28;20020;-63
2023/05/03 08:35:46;;;;;;;6.30;1.30;;;;;;;10.58;87.07;103034.94;5043941;28;20434;-62
2023/05/03 08:38:12;;;;;;;5.53;1.50;;;;;;;10.56;87.94;103041.06;5061427;28;20037;-61
2023/05/03 08:40:38;;;;;;;2.65;1.45;;;;;;;10.63;87.87;103044.59;5045942;28;20017;-61
2023/05/03 08:43:10;;;;;;;2.00;1.27;;;;;;;10.85;88.33;103041.13;5050252;28;20553;-60
2023/05/03 08:45:36;;;;;;;6.78;1.58;;;;;;;10.65;87.85;103042.84;5063064;28;20013;-63
2023/05/03 08:48:03;;;;;;;8.45;2.15;;;;;;;10.75;85.20;103039.34;5047707;28;20024;-64
2023/05/03 08:50:28;;;;;;;3.53;1.60;;;;;;;10.68;86.50;103043.72;5054153;28;20790;-62
2023/05/03 08:52:54;;;;;;;7.18;1.80;;;;;;;10.69;87.45;103039.34;5061791;28;20056;-59
2023/05/03 08:55:20;;;;;;;5.25;1.70;;;;;;;11.01;86.59;103038.47;5046655;28;20120;-64
2023/05/03 08:57:45;;;;;;;3.90;1.50;;;;;;;11.18;85.48;103042.84;5065038;28;20036;-62
2023/05/03 09:00:11;;;;;;;3.92;1.75;;;;;;;11.21;85.37;103050.75;5049469;28;20013;-60
2023/05/03 09:02:40;;;;;;;4.50;1.42;;;;;;;11.11;85.35;103045.47;5046810;28;20462;-63
2023/05/03 09:05:28;;;;;;;7.82;1.77;;;;;;;11.06;85.81;103054.28;5064864;28;20093;-62
2023/05/03 09:08:21;;;;;;;7.57;1.52;;;;;;;11.10;83.16;103045.47;5047407;28;20028;-62
2023/05/03 09:10:47;;;;;;;5.38;1.70;;;;;;;11.26;83.08;103046.38;5054017;28;20386;-61
2023/05/03 09:13:12;;;;;;;7.18;1.65;;;;;;;11.05;82.48;103047.25;5057888;28;20086;-61
2023/05/03 09:15:38;;;;;;;8.10;1.80;;;;;;;11.25;84.70;103053.41;5045762;28;20478;-61
2023/05/03 09:18:15;;;;;;;6.70;1.90;;;;;;;11.58;83.81;103041.88;5057035;28;20382;-61
2023/05/03 09:20:41;;;;;;;5.90;1.70;;;;;;;11.78;82.54;103048.88;5053997;28;20429;-62
2023/05/03 09:23:09;;;;;;;3.75;1.60;;;;;;;11.68;82.24;103040.13;5046687;28;20463;-62
2023/05/03 09:25:48;;;;;;;4.03;1.77;;;;;;;11.66;82.46;103037.47;5050054;28;20021;-60
2023/05/03 09:28:14;;;;;;;7.50;1.85;;;;;;;11.95;84.00;103038.25;5049669;28;20127;-62
2023/05/03 09:30:41;;;;;;;6.32;2.13;;;;;;;11.70;83.24;103036.56;5046709;28;20028;-61
2023/05/03 09:33:07;;;;;;;8.60;2.10;;;;;;;11.48;82.64;103030.47;5048094;28;20398;-61
2023/05/03 09:35:33;;;;;;;5.72;2.20;;;;;;;11.43;81.55;103030.50;5060834;28;20017;-62
2023/05/03 09:37:59;;;;;;;7.35;1.92;;;;;;;11.24;81.39;103027.91;5047875;28;20020;-62
2023/05/03 09:40:25;;;;;;;9.23;2.25;;;;;;;11.32;81.50;103033.13;5062748;28;20028;-61
2023/05/03 09:43:10;;;;;;;3.55;1.83;;;;;;;11.30;82.34;103031.41;5045011;28;20057;-61
2023/05/03 09:45:39;;;;;;;6.13;2.00;;;;;;;11.46;82.20;103034.88;5052153;28;20025;-60
2023/05/03 09:48:06;;;;;;;6.22;2.03;;;;;;;11.59;82.12;103028.69;5046511;28;20083;-61
2023/05/03 09:50:32;;;;;;;4.80;1.77;;;;;;;11.44;81.55;103026.09;5046368;28;20075;-61
2023/05/03 09:53:03;;;;;;;15.05;2.28;;;;;;;11.29;82.86;103027.00;5053983;28;20059;-62
2023/05/03 09:55:36;;;;;;;5.90;1.85;;;;;;;11.69;82.13;103033.94;5057890;28;20479;-61
2023/05/03 09:58:08;;;;;;;4.10;2.15;;;;;;;11.84;81.36;103036.53;5045518;28;20033;-64
2023/05/03 10:00:39;;;;;;;3.20;2.17;;;;;;;11.66;80.99;103033.94;5052834;28;20032;-63
2023/05/03 10:03:09;;;;;;;8.55;2.53;;;;;;;11.80;82.01;103029.47;5047332;28;20029;-61
2023/05/03 10:05:48;;;;;;;3.90;2.30;;;;;;;12.33;82.72;103031.03;5046517;28;20021;-61
2023/05/03 10:08:23;;;;;;;4.30;2.17;;;;;;;12.64;81.61;103023.75;5062996;28;20402;-60
2023/05/03 10:10:52;;;;;;;3.97;2.13;;;;;;;12.70;80.64;103014.03;5067988;28;20040;-62
2023/05/03 10:13:18;;;;;;;4.85;2.20;;;;;;;12.75;81.48;103022.81;5065396;28;20083;-62
2023/05/03 10:15:44;;;;;;;5.47;2.20;;;;;;;13.16;80.18;103018.03;5066348;28;20442;-63
2023/05/03 10:18:12;;;;;;;5.43;2.25;;;;;;;13.25;81.58;103012.63;5065813;28;20082;-60
2023/05/03 10:20:53;;;;;;;6.05;2.15;;;;;;;12.95;79.16;103016.47;5063821;28;20567;-61
2023/05/03 10:23:19;;;;;;;5.05;2.63;;;;;;;12.47;80.47;103017.72;5066984;28;20025;-61
2023/05/03 10:26:06;;;;;;;6.57;2.75;;;;;;;12.68;79.81;103006.13;5067537;28;20079;-62
2023/05/03 10:28:34;;;;;;;4.97;2.25;;;;;;;12.94;80.28;103006.78;5066516;28;20035;-62
2023/05/03 10:31:00;;;;;;;7.60;2.58;;;;;;;12.84;79.49;102996.28;5066614;28;20098;-62
2023/05/03 10:33:33;;;;;;;7.65;2.47;;;;;;;13.26;78.13;102995.88;5063082;28;20683;-60
2023/05/03 10:36:04;;;;;;;6.28;2.28;;;;;;;13.72;78.56;102998.00;5049866;28;20039;-61
2023/05/03 10:38:31;;;;;;;8.45;2.35;;;;;;;14.04;76.27;103002.03;5054616;28;20023;-60
2023/05/03 10:40:57;;;;;;;5.20;2.20;;;;;;;14.15;75.02;103000.09;5047288;28;20029;-63
2023/05/03 10:43:32;;;;;;;6.32;2.50;;;;;;;13.84;71.18;102999.63;5054120;28;20580;-60
2023/05/03 10:45:58;;;;;;;6.47;2.80;;;;;;;13.47;72.54;102995.63;5050319;28;20274;-63
2023/05/03 10:48:24;;;;;;;13.55;2.80;;;;;;;13.20;72.30;102992.41;5044875;28;20021;-63
2023/05/03 10:50:50;;;;;;;3.67;2.38;;;;;;;13.62;72.91;102984.91;5065838;28;20059;-62
2023/05/03 10:53:39;;;;;;;6.47;2.22;;;;;;;14.04;74.10;102986.13;5046654;28;20584;-63
2023/05/03 10:56:09;;;;;;;9.20;2.70;;;;;;;14.15;72.03;102996.59;5047852;28;20040;-61
2023/05/03 10:58:37;;;;;;;6.95;2.80;;;;;;;13.97;73.40;102984.47;5066804;28;20113;-61
2023/05/03 11:01:08;;;;;;;8.57;2.63;;;;;;;14.45;75.28;102980.22;5065757;28;20047;-61
2023/05/03 11:03:37;;;;;;;5.95;2.20;;;;;;;14.20;70.89;102980.59;5059821;28;20019;-62
2023/05/03 11:06:02;;;;;;;4.80;2.37;;;;;;;14.14;70.97;102979.78;5067397;28;20029;-61
2023/05/03 11:08:36;;;;;;;4.60;2.35;;;;;;;14.38;70.32;102979.44;5056307;28;20329;-61
2023/05/03 11:11:04;;;;;;;5.45;2.55;;;;;;;14.23;69.73;102975.22;5056178;28;20474;-63
2023/05/03 11:13:29;;;;;;;5.78;2.20;;;;;;;14.27;69.31;102982.28;5064868;28;20080;-61
2023/05/03 11:15:55;;;;;;;6.88;2.45;;;;;;;13.98;70.13;102975.59;5049638;28;20416;-63
2023/05/03 11:18:21;;;;;;;7.63;2.95;;;;;;;14.70;72.03;102978.03;5050942;28;20027;-63
2023/05/03 11:20:46;;;;;;;6.30;2.75;;;;;;;14.95;75.53;102958.16;5064805;28;20442;-64
2023/05/03 11:23:12;;;;;;;7.82;2.80;;;;;;;14.82;72.39;102955.75;5044468;28;20027;-61
2023/05/03 11:25:37;;;;;;;6.80;2.30;;;;;;;14.99;69.42;102950.13;5059141;28;20040;-61